Time;durP1;ratioP1;P1;durP2;ratioP2;P2;SDS_P1;SDS_P2;PMS_P1;PMS_P2;Temp;Humidity;BMP_temperature;BMP_pressure;BME280_temperature;BME280_humidity;BME280_pressure;Samples;Min_cycle;Max_cycle;Signal;HPM_P1;HPM_P2
2024/04/24 00:02:09;;;;;;;10.30;5.50;;;;;;;4.78;100.00;100819.81;7707023;22;20262;-65
2024/04/24 00:05:32;;;;;;;5.93;5.43;;;;;;;4.98;100.00;100815.84;7713113;22;20262;-65
2024/04/24 00:08:54;;;;;;;6.73;6.20;;;;;;;4.95;100.00;100820.53;7727516;22;20558;-64
2024/04/24 00:12:17;;;;;;;7.67;6.60;;;;;;;5.00;100.00;100802.38;7717842;22;20273;-65
2024/04/24 00:15:39;;;;;;;7.20;5.77;;;;;;;5.08;100.00;100789.38;7710197;22;20278;-65
2024/04/24 00:19:04;;;;;;;6.63;6.03;;;;;;;5.06;100.00;100781.47;7725148;22;20914;-64
2024/04/24 00:22:27;;;;;;;8.10;7.03;;;;;;;5.11;100.00;100792.66;7711780;22;20286;-66
2024/04/24 00:25:49;;;;;;;6.63;5.53;;;;;;;5.01;100.00;100785.38;7715286;22;20270;-65
2024/04/24 00:29:11;;;;;;;6.60;5.97;;;;;;;5.03;100.00;100778.97;7725917;22;20266;-64
2024/04/24 00:32:34;;;;;;;6.73;6.13;;;;;;;4.99;100.00;100776.63;7692149;22;20269;-64
2024/04/24 00:35:59;;;;;;;6.23;5.73;;;;;;;5.04;100.00;100772.69;7717041;22;20266;-64
2024/04/24 00:39:21;;;;;;;7.43;5.87;;;;;;;5.03;100.00;100751.44;7726445;22;21127;-65
2024/04/24 00:42:44;;;;;;;5.27;4.70;;;;;;;4.99;100.00;100757.91;7716475;22;20270;-65
2024/04/24 00:46:07;;;;;;;11.07;6.30;;;;;;;4.88;100.00;100750.66;7705390;22;20574;-65
2024/04/24 00:49:29;;;;;;;7.60;6.87;;;;;;;4.95;100.00;100743.94;7723879;22;20270;-66
2024/04/24 00:52:55;;;;;;;5.90;4.83;;;;;;;4.90;100.00;100742.53;7714979;22;20276;-65
2024/04/24 00:56:18;;;;;;;6.17;5.57;;;;;;;4.93;100.00;100745.84;7716350;22;20797;-65
2024/04/24 00:59:40;;;;;;;4.90;4.50;;;;;;;4.85;100.00;100742.84;7726354;22;20897;-65
2024/04/24 01:03:04;;;;;;;6.03;5.33;;;;;;;4.94;100.00;100741.38;7735077;22;20282;-65
2024/04/24 01:06:26;;;;;;;12.20;6.23;;;;;;;4.92;100.00;100730.78;7712153;22;20548;-65
2024/04/24 01:09:51;;;;;;;10.33;4.53;;;;;;;4.81;100.00;100725.31;7727110;22;20274;-66
2024/04/24 01:13:13;;;;;;;6.07;5.57;;;;;;;4.88;100.00;100723.97;7721898;22;20266;-65
2024/04/24 01:16:39;;;;;;;5.63;5.13;;;;;;;4.91;100.00;100721.06;7707214;22;20270;-65
2024/04/24 01:20:04;;;;;;;6.83;5.63;;;;;;;4.86;100.00;100720.50;7724715;22;20269;-65
2024/04/24 01:23:32;;;;;;;5.37;4.90;;;;;;;4.90;100.00;100711.34;7725776;22;20282;-65
2024/04/24 01:26:58;;;;;;;5.27;4.63;;;;;;;4.94;100.00;100706.66;7712442;22;20573;-65
2024/04/24 01:30:20;;;;;;;5.97;5.10;;;;;;;4.97;100.00;100703.75;7712806;22;20270;-65
2024/04/24 01:33:42;;;;;;;7.37;4.97;;;;;;;4.98;100.00;100700.13;7716663;22;20314;-65
2024/04/24 01:37:05;;;;;;;6.07;5.33;;;;;;;4.87;100.00;100698.19;7716631;22;20258;-66
2024/04/24 01:40:28;;;;;;;14.00;7.63;;;;;;;4.96;100.00;100691.38;7715438;22;20277;-64
2024/04/24 01:43:53;;;;;;;6.47;5.93;;;;;;;4.98;100.00;100686.78;7724989;22;20565;-65
2024/04/24 01:47:15;;;;;;;7.20;6.50;;;;;;;4.90;100.00;100683.78;7708531;22;20321;-65
2024/04/24 01:50:38;;;;;;;6.50;5.90;;;;;;;5.02;100.00;100674.91;7712972;22;20282;-66
2024/04/24 01:54:00;;;;;;;7.17;6.23;;;;;;;4.84;100.00;100671.69;7748133;22;20286;-64
2024/04/24 01:57:23;;;;;;;6.87;6.20;;;;;;;4.93;100.00;100676.41;7710397;22;20273;-66
2024/04/24 02:00:47;;;;;;;6.40;5.50;;;;;;;4.99;100.00;100673.31;7709888;22;20270;-65
2024/04/24 02:04:09;;;;;;;6.57;5.97;;;;;;;5.12;100.00;100667.97;7718760;22;20282;-65
2024/04/24 02:07:32;;;;;;;10.87;5.67;;;;;;;4.95;100.00;100663.81;7710177;22;20274;-65
2024/04/24 02:10:54;;;;;;;9.53;6.53;;;;;;;4.82;100.00;100653.09;7715535;22;20265;-65
2024/04/24 02:14:16;;;;;;;7.67;6.33;;;;;;;4.98;100.00;100644.03;7724823;22;20266;-65
2024/04/24 02:17:40;;;;;;;7.93;6.47;;;;;;;4.96;100.00;100648.63;7702138;22;20266;-65
2024/04/24 02:21:08;;;;;;;8.13;7.07;;;;;;;5.03;100.00;100641.91;7714911;22;20613;-66
2024/04/24 02:28:06;;;;;;;8.97;6.40;;;;;;;4.89;100.00;100640.19;7712726;22;20491;-65
2024/04/24 02:31:28;;;;;;;8.23;7.53;;;;;;;4.85;100.00;100642.22;7712376;22;20266;-65
2024/04/24 02:34:53;;;;;;;7.70;7.00;;;;;;;4.93;100.00;100633.69;7724457;22;20285;-65
2024/04/24 02:38:15;;;;;;;12.23;6.97;;;;;;;4.81;100.00;100632.72;7719330;22;20270;-64
2024/04/24 02:41:37;;;;;;;7.73;6.83;;;;;;;4.88;100.00;100629.63;7708625;22;20488;-65
2024/04/24 02:44:59;;;;;;;8.47;7.07;;;;;;;5.00;100.00;100634.09;7726463;22;20563;-65
2024/04/24 02:48:22;;;;;;;7.20;6.60;;;;;;;4.94;100.00;100624.72;7717684;22;20270;-65
2024/04/24 02:51:46;;;;;;;10.13;7.80;;;;;;;4.91;100.00;100626.72;7716916;22;20270;-65
2024/04/24 02:55:09;;;;;;;8.33;7.53;;;;;;;4.88;100.00;100604.63;7716977;22;20258;-65
2024/04/24 02:58:31;;;;;;;6.93;6.33;;;;;;;4.90;100.00;100609.00;7723773;22;20261;-65
2024/04/24 03:01:53;;;;;;;5.90;5.13;;;;;;;4.86;100.00;100605.69;7702402;22;20294;-66
2024/04/24 03:05:15;;;;;;;9.30;4.17;;;;;;;4.81;100.00;100605.16;7715281;22;20269;-66
2024/04/24 03:08:40;;;;;;;6.90;5.00;;;;;;;4.86;100.00;100603.88;7724209;22;20261;-66
2024/04/24 03:12:02;;;;;;;8.80;6.13;;;;;;;4.86;100.00;100595.84;7713145;22;20848;-66
2024/04/24 03:15:24;;;;;;;7.10;6.10;;;;;;;4.76;100.00;100592.13;7715219;22;20274;-66
2024/04/24 03:18:47;;;;;;;6.43;5.83;;;;;;;4.75;100.00;100590.44;7710568;22;20303;-66
2024/04/24 03:22:09;;;;;;;7.53;6.73;;;;;;;4.79;100.00;100591.06;7712604;22;20282;-66
2024/04/24 03:25:34;;;;;;;11.83;7.53;;;;;;;4.72;100.00;100587.09;7713628;22;20266;-66
2024/04/24 03:28:57;;;;;;;7.07;4.83;;;;;;;4.73;100.00;100580.81;7721582;22;20274;-66
2024/04/24 03:32:19;;;;;;;5.67;4.60;;;;;;;4.73;100.00;100584.34;7700465;22;20491;-66
2024/04/24 03:35:42;;;;;;;8.07;5.13;;;;;;;4.81;100.00;100575.78;7735033;22;20270;-66
2024/04/24 03:39:04;;;;;;;14.13;6.83;;;;;;;4.86;100.00;100577.16;7725100;22;20273;-65
2024/04/24 03:42:29;;;;;;;13.10;5.10;;;;;;;4.76;100.00;100568.09;7714240;22;20270;-65
2024/04/24 03:45:51;;;;;;;8.97;6.33;;;;;;;4.77;100.00;100567.16;7705677;22;20285;-64
2024/04/24 03:49:13;;;;;;;5.83;5.23;;;;;;;4.82;100.00;100565.00;7723145;22;20266;-66
2024/04/24 03:52:35;;;;;;;7.33;5.67;;;;;;;4.69;100.00;100564.13;7712452;22;20270;-65
2024/04/24 03:55:58;;;;;;;8.83;6.23;;;;;;;4.83;100.00;100556.03;7709230;22;20274;-65
2024/04/24 03:59:23;;;;;;;8.20;5.50;;;;;;;4.85;100.00;100550.56;7723602;22;20290;-66
2024/04/24 04:02:46;;;;;;;6.27;5.43;;;;;;;4.81;100.00;100554.44;7702284;22;20274;-66
2024/04/24 04:06:08;;;;;;;6.90;5.23;;;;;;;4.80;100.00;100542.88;7708154;22;20273;-65
2024/04/24 04:09:30;;;;;;;5.10;4.63;;;;;;;4.90;100.00;100537.75;7720812;22;20270;-66
2024/04/24 04:12:52;;;;;;;6.60;5.13;;;;;;;4.81;100.00;100543.75;7710928;22;20266;-65
2024/04/24 04:16:17;;;;;;;6.27;5.67;;;;;;;4.74;100.00;100540.66;7702871;22;20961;-65
2024/04/24 04:19:40;;;;;;;6.50;5.70;;;;;;;4.78;100.00;100535.94;7721016;22;20263;-65
2024/04/24 04:23:03;;;;;;;6.00;5.40;;;;;;;4.75;100.00;100538.84;7713953;22;20278;-64
2024/04/24 04:26:25;;;;;;;7.63;5.37;;;;;;;4.90;100.00;100526.22;7714975;22;20290;-66
2024/04/24 04:29:47;;;;;;;10.00;5.67;;;;;;;4.71;100.00;100534.69;7724336;22;20282;-66
2024/04/24 04:33:12;;;;;;;7.80;6.37;;;;;;;4.90;100.00;100527.09;7712856;22;20277;-66
2024/04/24 04:36:35;;;;;;;7.30;6.57;;;;;;;4.85;100.00;100527.41;7713189;22;20278;-65
2024/04/24 04:39:57;;;;;;;8.13;5.23;;;;;;;4.99;100.00;100530.88;7721281;22;20274;-66
2024/04/24 04:43:20;;;;;;;5.20;4.73;;;;;;;4.85;100.00;100534.56;7709451;22;20266;-66
2024/04/24 04:46:42;;;;;;;10.00;6.43;;;;;;;4.83;100.00;100526.66;7710056;22;20269;-65
2024/04/24 04:50:07;;;;;;;7.60;6.80;;;;;;;4.95;100.00;100522.25;7723531;22;20602;-64
2024/04/24 04:53:30;;;;;;;7.90;5.33;;;;;;;4.82;100.00;100513.41;7724450;22;20266;-65
2024/04/24 04:56:53;;;;;;;9.17;6.97;;;;;;;5.02;100.00;100514.66;7714765;22;20270;-66
2024/04/24 05:00:15;;;;;;;7.97;6.80;;;;;;;5.28;100.00;100513.63;7717294;22;20270;-65
2024/04/24 05:03:38;;;;;;;7.80;6.60;;;;;;;5.30;100.00;100506.38;7717732;22;20270;-66
2024/04/24 05:07:03;;;;;;;8.37;7.23;;;;;;;5.13;100.00;100504.06;7719773;22;20277;-65
2024/04/24 05:10:25;;;;;;;11.27;7.70;;;;;;;5.47;100.00;100508.63;7694324;22;20262;-65
2024/04/24 05:13:47;;;;;;;7.23;6.53;;;;;;;5.39;100.00;100509.22;7725467;22;20274;-66
2024/04/24 05:17:10;;;;;;;7.73;5.83;;;;;;;5.44;100.00;100514.22;7717293;22;20590;-65
2024/04/24 05:20:33;;;;;;;6.27;5.60;;;;;;;5.10;100.00;100504.28;7712487;22;21106;-65
2024/04/24 05:23:58;;;;;;;7.60;6.90;;;;;;;5.30;100.00;100509.88;7724725;22;20285;-65
2024/04/24 05:30:59;;;;;;;8.47;5.57;;;;;;;5.12;100.00;100491.66;7702074;22;20261;-65
2024/04/24 05:34:22;;;;;;;8.03;6.63;;;;;;;5.21;100.00;100491.84;7720421;22;20270;-65
2024/04/24 05:37:45;;;;;;;9.07;7.33;;;;;;;5.23;100.00;100489.06;7713783;22;20586;-65
2024/04/24 05:41:10;;;;;;;6.63;5.73;;;;;;;5.39;100.00;100479.81;7717273;22;20290;-68
2024/04/24 05:44:34;;;;;;;11.70;5.83;;;;;;;5.57;100.00;100493.63;7725191;22;20266;-66
2024/04/24 05:47:56;;;;;;;12.53;5.60;;;;;;;5.24;100.00;100480.06;7711931;22;20274;-66
2024/04/24 05:51:18;;;;;;;5.70;5.00;;;;;;;5.22;100.00;100482.88;7704857;22;20274;-66
2024/04/24 05:54:41;;;;;;;10.47;5.93;;;;;;;5.26;100.00;100472.78;7719200;22;20622;-68
2024/04/24 05:58:06;;;;;;;6.70;5.60;;;;;;;5.35;100.00;100478.34;7709735;22;20300;-69
2024/04/24 06:01:29;;;;;;;5.43;4.67;;;;;;;5.06;100.00;100482.28;7726591;22;20589;-68
2024/04/24 06:04:51;;;;;;;7.33;4.77;;;;;;;5.41;100.00;100483.22;7723659;22;20310;-68
2024/04/24 06:08:14;;;;;;;8.10;5.00;;;;;;;5.34;100.00;100478.47;7718455;22;20282;-69
2024/04/24 06:11:36;;;;;;;5.67;5.07;;;;;;;5.12;100.00;100475.63;7697332;22;20270;-68
2024/04/24 06:15:01;;;;;;;16.40;5.73;;;;;;;5.06;100.00;100470.72;7727587;22;20270;-69
2024/04/24 06:18:24;;;;;;;8.03;4.37;;;;;;;5.25;100.00;100469.28;7714758;22;20262;-68
2024/04/24 06:21:47;;;;;;;5.20;3.93;;;;;;;5.09;100.00;100473.19;7709330;22;20278;-67
2024/04/24 06:25:09;;;;;;;4.57;3.80;;;;;;;5.26;100.00;100478.13;7717661;22;20274;-66
2024/04/24 06:28:31;;;;;;;5.27;4.00;;;;;;;5.10;100.00;100466.88;7717848;22;20317;-67
2024/04/24 06:31:56;;;;;;;6.23;3.60;;;;;;;5.13;100.00;100477.34;7710777;22;20317;-67
2024/04/24 06:35:20;;;;;;;11.80;4.13;;;;;;;5.16;100.00;100464.59;7710906;22;20273;-64
2024/04/24 06:38:42;;;;;;;8.20;4.47;;;;;;;5.26;100.00;100465.63;7721140;22;20273;-66
2024/04/24 06:42:04;;;;;;;3.70;3.13;;;;;;;5.29;100.00;100469.91;7708140;22;20270;-66
2024/04/24 06:45:26;;;;;;;6.23;3.37;;;;;;;5.41;100.00;100469.00;7717268;22;20314;-66
2024/04/24 06:48:51;;;;;;;4.77;3.40;;;;;;;5.47;100.00;100472.06;7717159;22;20278;-67
2024/04/24 06:52:14;;;;;;;4.13;3.20;;;;;;;5.47;100.00;100472.06;7711541;22;20258;-65
2024/04/24 06:55:37;;;;;;;3.83;2.93;;;;;;;5.26;100.00;100467.44;7692347;22;20266;-66
2024/04/24 06:59:00;;;;;;;5.60;3.23;;;;;;;5.05;100.00;100472.53;7721553;22;20266;-67
2024/04/24 07:02:22;;;;;;;3.77;2.43;;;;;;;5.10;100.00;100472.22;7709190;22;20668;-66
2024/04/24 07:05:47;;;;;;;2.83;2.40;;;;;;;5.25;100.00;100471.09;7713783;22;20266;-66
2024/04/24 07:09:10;;;;;;;2.57;2.10;;;;;;;5.04;100.00;100475.34;7718243;22;20443;-68
2024/04/24 07:12:32;;;;;;;6.63;2.03;;;;;;;4.78;100.00;100471.84;7704232;22;20578;-68
2024/04/24 07:15:55;;;;;;;3.67;2.87;;;;;;;4.63;100.00;100476.47;7706514;22;20754;-66
2024/04/24 07:19:17;;;;;;;3.23;2.87;;;;;;;4.70;100.00;100475.09;7718060;22;20258;-67
2024/04/24 07:22:42;;;;;;;3.23;2.00;;;;;;;5.03;100.00;100476.31;7709188;22;20262;-69
2024/04/24 07:26:05;;;;;;;2.10;1.90;;;;;;;4.77;100.00;100476.38;7715624;22;20789;-66
2024/04/24 07:29:27;;;;;;;1.43;1.40;;;;;;;4.78;100.00;100470.06;7720761;22;20325;-68
2024/04/24 07:32:49;;;;;;;3.50;2.00;;;;;;;4.90;100.00;100470.13;7704500;22;20266;-69
2024/04/24 07:36:12;;;;;;;3.33;1.77;;;;;;;4.98;100.00;100465.97;7712954;22;20290;-68
2024/04/24 07:39:37;;;;;;;1.67;1.57;;;;;;;4.84;100.00;100463.41;7719367;22;20266;-68
2024/04/24 07:42:59;;;;;;;2.50;1.93;;;;;;;5.02;100.00;100463.91;7705315;22;20266;-68
2024/04/24 07:46:22;;;;;;;2.17;1.97;;;;;;;5.20;100.00;100468.75;7707693;22;20262;-67
2024/04/24 07:49:44;;;;;;;5.30;2.47;;;;;;;5.08;100.00;100474.16;7708219;22;20274;-70
2024/04/24 07:53:06;;;;;;;3.63;2.37;;;;;;;5.07;100.00;100459.94;7708198;22;20265;-70
2024/04/24 07:56:32;;;;;;;3.10;1.83;;;;;;;5.25;100.00;100463.94;7713470;22;20564;-69
2024/04/24 07:59:54;;;;;;;3.07;2.87;;;;;;;5.47;100.00;100466.72;7715422;22;20309;-69
2024/04/24 08:03:17;;;;;;;3.53;2.33;;;;;;;5.74;100.00;100455.78;7716208;22;20270;-70
2024/04/24 08:06:39;;;;;;;5.93;3.17;;;;;;;5.30;100.00;100460.94;7709972;22;20270;-70
2024/04/24 08:10:02;;;;;;;3.27;2.23;;;;;;;5.54;100.00;100461.78;7720011;22;20270;-70
2024/04/24 08:13:27;;;;;;;4.77;2.20;;;;;;;5.76;100.00;100459.19;7720481;22;20269;-71
2024/04/24 08:16:49;;;;;;;2.50;2.30;;;;;;;5.90;100.00;100453.69;7710899;22;20273;-70
2024/04/24 08:20:14;;;;;;;2.13;1.93;;;;;;;6.01;100.00;100455.53;7716145;22;20596;-69
2024/04/24 08:23:37;;;;;;;2.43;2.23;;;;;;;5.78;100.00;100462.59;7720128;22;20328;-70
2024/04/24 08:26:59;;;;;;;4.00;2.37;;;;;;;5.90;100.00;100459.06;7710636;22;20329;-70
2024/04/24 08:30:24;;;;;;;2.20;2.00;;;;;;;6.08;100.00;100456.78;7709631;22;20270;-70
2024/04/24 08:33:47;;;;;;;3.30;2.80;;;;;;;5.86;100.00;100459.41;7718950;22;20270;-71
2024/04/24 08:37:09;;;;;;;2.90;1.93;;;;;;;6.01;100.00;100459.06;7708006;22;20270;-71
2024/04/24 08:40:32;;;;;;;2.87;2.47;;;;;;;5.98;100.00;100459.31;7712588;22;20270;-70
2024/04/24 08:43:55;;;;;;;4.43;2.90;;;;;;;6.20;100.00;100464.69;7705908;22;20278;-70
2024/04/24 08:47:22;;;;;;;1.97;1.83;;;;;;;6.10;100.00;100462.84;7698722;22;20281;-70
2024/04/24 08:50:46;;;;;;;3.23;2.50;;;;;;;6.30;100.00;100463.00;7713192;22;20273;-70
2024/04/24 08:54:14;;;;;;;2.87;1.90;;;;;;;6.65;100.00;100456.72;7718011;22;20270;-71
2024/04/24 08:57:37;;;;;;;2.50;2.30;;;;;;;6.54;100.00;100457.56;7715924;22;20285;-70
2024/04/24 09:01:02;;;;;;;6.20;3.00;;;;;;;6.70;100.00;100444.66;7713542;22;20266;-71
2024/04/24 09:04:29;;;;;;;2.33;1.70;;;;;;;6.63;100.00;100447.97;7716281;22;20274;-70
2024/04/24 09:07:52;;;;;;;3.40;2.07;;;;;;;6.70;100.00;100441.13;7710480;22;20314;-70
2024/04/24 09:11:15;;;;;;;2.30;2.10;;;;;;;6.96;100.00;100438.09;7714967;22;20282;-70
2024/04/24 09:14:38;;;;;;;3.43;1.97;;;;;;;7.41;100.00;100443.31;7721271;22;20259;-69
2024/04/24 09:18:00;;;;;;;1.83;1.50;;;;;;;7.60;100.00;100436.31;7709224;22;20285;-69
2024/04/24 09:21:26;;;;;;;2.33;2.00;;;;;;;7.15;100.00;100437.44;7696554;22;20285;-70
2024/04/24 09:24:55;;;;;;;4.77;2.37;;;;;;;7.43;100.00;100434.16;7721320;22;20675;-70
2024/04/24 09:28:17;;;;;;;2.77;2.57;;;;;;;7.69;100.00;100432.00;7717844;22;20269;-70
2024/04/24 09:31:40;;;;;;;4.20;2.37;;;;;;;7.62;100.00;100425.44;7707987;22;20262;-65
2024/04/24 09:35:03;;;;;;;2.53;2.33;;;;;;;7.02;100.00;100426.00;7718852;22;20266;-69
2024/04/24 09:38:30;;;;;;;2.97;1.90;;;;;;;6.93;100.00;100427.59;7723734;22;20961;-69
2024/04/24 09:41:53;;;;;;;3.87;2.83;;;;;;;6.80;100.00;100426.88;7688358;22;20332;-66
2024/04/24 09:45:15;;;;;;;6.60;2.77;;;;;;;6.88;100.00;100432.50;7722734;22;20270;-67
2024/04/24 09:48:38;;;;;;;3.13;2.50;;;;;;;7.36;100.00;100426.78;7718531;22;20266;-67
2024/04/24 09:52:01;;;;;;;3.23;2.10;;;;;;;6.82;100.00;100424.09;7715712;22;20265;-67
2024/04/24 09:55:30;;;;;;;2.17;2.03;;;;;;;7.30;100.00;100428.16;7715970;22;20277;-65
2024/04/24 09:58:53;;;;;;;2.47;2.27;;;;;;;7.47;100.00;100424.88;7723955;22;20277;-67
2024/04/24 10:02:23;;;;;;;3.87;2.90;;;;;;;7.43;100.00;100420.75;7709818;22;20317;-67
2024/04/24 10:05:48;;;;;;;4.60;2.33;;;;;;;7.01;100.00;100422.47;7713550;22;20671;-66
2024/04/24 10:12:54;;;;;;;4.90;2.53;;;;;;;7.40;100.00;100415.69;7631317;22;20267;-67
2024/04/24 10:16:17;;;;;;;5.40;2.00;;;;;;;7.39;100.00;100418.47;7630132;23;20367;-68
2024/04/24 10:19:40;;;;;;;2.17;1.97;;;;;;;7.12;100.00;100411.72;7663573;23;20330;-65
2024/04/24 10:23:03;;;;;;;3.03;2.83;;;;;;;7.89;100.00;100407.00;7657691;23;20489;-65
2024/04/24 10:26:27;;;;;;;2.27;2.07;;;;;;;8.24;100.00;100407.50;7652334;23;20812;-66
2024/04/24 10:29:55;;;;;;;2.20;1.87;;;;;;;8.16;100.00;100401.09;7659050;23;20287;-67
2024/04/24 10:33:19;;;;;;;4.07;2.13;;;;;;;8.09;100.00;100396.28;7650157;23;20521;-66
2024/04/24 10:36:41;;;;;;;2.10;1.47;;;;;;;8.42;100.00;100400.59;7651613;23;20263;-67
2024/04/24 10:40:04;;;;;;;1.50;1.40;;;;;;;8.96;100.00;100394.84;7660592;23;20267;-66
2024/04/24 10:43:28;;;;;;;3.30;2.10;;;;;;;8.99;100.00;100394.56;7645582;23;20279;-67
2024/04/24 10:46:53;;;;;;;4.63;2.37;;;;;;;9.46;100.00;100384.88;7646695;23;20929;-66
2024/04/24 10:50:17;;;;;;;2.10;1.90;;;;;;;9.90;100.00;100375.34;7658236;23;20986;-69
2024/04/24 10:53:49;;;;;;;2.60;2.40;;;;;;;9.99;100.00;100375.31;7664548;23;20278;-68
2024/04/24 10:57:13;;;;;;;2.53;2.33;;;;;;;10.16;100.00;100379.13;7650691;23;20278;-69
2024/04/24 11:00:35;;;;;;;3.13;2.57;;;;;;;10.96;100.00;100374.84;7632211;23;20575;-68
2024/04/24 11:04:02;;;;;;;3.00;1.93;;;;;;;10.29;100.00;100377.84;7661217;23;20349;-66
2024/04/24 11:07:30;;;;;;;7.60;2.27;;;;;;;10.59;100.00;100371.34;7648868;23;20270;-66
2024/04/24 11:10:53;;;;;;;1.40;1.30;;;;;;;10.19;100.00;100374.34;7656796;23;20263;-66
2024/04/24 11:14:16;;;;;;;1.90;1.80;;;;;;;9.64;100.00;100373.25;7660912;23;20275;-67
2024/04/24 11:17:38;;;;;;;1.40;1.30;;;;;;;8.95;100.00;100374.31;7644376;23;20501;-68
2024/04/24 11:21:03;;;;;;;2.00;1.80;;;;;;;8.86;100.00;100386.75;7648305;23;20263;-69
2024/04/24 11:24:30;;;;;;;2.20;1.60;;;;;;;8.57;100.00;100377.72;7664200;23;20611;-68
2024/04/24 11:27:53;;;;;;;0.83;0.83;;;;;;;7.51;100.00;100382.59;7651190;23;20275;-68
2024/04/24 11:31:15;;;;;;;1.07;0.97;;;;;;;7.53;100.00;100381.47;7644066;23;20268;-67
2024/04/24 11:34:40;;;;;;;1.67;1.57;;;;;;;8.80;100.00;100370.34;7663608;23;20650;-64
2024/04/24 11:38:05;;;;;;;1.90;1.00;;;;;;;9.81;100.00;100374.38;7658328;23;20267;-70
2024/04/24 11:41:29;;;;;;;1.63;0.90;;;;;;;10.42;100.00;100377.50;7654472;23;20294;-66
2024/04/24 11:44:51;;;;;;;0.90;0.90;;;;;;;9.19;100.00;100374.81;7664396;23;20263;-66
2024/04/24 11:48:14;;;;;;;0.80;0.73;;;;;;;9.33;100.00;100368.16;7657370;23;20327;-64
2024/04/24 11:51:39;;;;;;;1.50;1.27;;;;;;;9.93;100.00;100365.13;7657518;23;20263;-64
2024/04/24 11:55:05;;;;;;;1.67;1.57;;;;;;;10.42;100.00;100364.03;7667998;23;21038;-68
2024/04/24 11:58:31;;;;;;;0.90;0.90;;;;;;;11.28;100.00;100347.38;7667868;23;20285;-67
2024/04/24 12:01:55;;;;;;;2.40;1.53;;;;;;;14.73;100.00;100338.66;7646419;23;20278;-65
2024/04/24 12:05:17;;;;;;;1.70;1.60;;;;;;;14.43;100.00;100347.59;7652805;23;20307;-68
2024/04/24 12:08:41;;;;;;;1.60;1.13;;;;;;;11.97;100.00;100348.31;7660812;23;20270;-64
2024/04/24 12:12:07;;;;;;;1.17;0.67;;;;;;;12.78;100.00;100355.03;7652403;23;20462;-64
2024/04/24 12:15:29;;;;;;;1.30;1.20;;;;;;;10.91;100.00;100354.72;7651273;23;21029;-65
2024/04/24 12:18:52;;;;;;;1.00;1.00;;;;;;;13.34;100.00;100342.69;7661977;23;20271;-68
2024/04/24 12:22:15;;;;;;;0.90;0.80;;;;;;;17.62;91.94;100333.28;7655965;23;20626;-66
2024/04/24 12:25:37;;;;;;;4.63;4.23;;;;;;;20.79;74.34;100326.69;7658960;23;20492;-67
2024/04/24 12:29:03;;;;;;;0.80;0.80;;;;;;;23.18;52.78;100318.88;7668245;23;20271;-67
2024/04/24 12:32:25;;;;;;;1.25;1.15;;;;;;;23.29;45.06;100326.38;7655356;23;20274;-68
2024/04/24 12:35:48;;;;;;;1.88;0.93;;;;;;;22.14;45.95;100325.28;7657578;23;20270;-68
2024/04/24 12:39:11;;;;;;;1.95;0.70;;;;;;;20.41;54.37;100328.44;7663570;23;20568;-68
2024/04/24 12:42:33;;;;;;;2.05;1.02;;;;;;;17.24;71.26;100321.72;7653271;23;20286;-64
2024/04/24 12:45:58;;;;;;;1.23;1.15;;;;;;;14.21;85.24;100332.00;7649317;23;20271;-67
2024/04/24 12:49:21;;;;;;;3.87;2.90;;;;;;;14.07;98.24;100340.84;7659600;23;20519;-66
2024/04/24 12:52:43;;;;;;;1.97;1.67;;;;;;;16.23;95.01;100331.66;7649558;23;20530;-70
2024/04/24 12:56:05;;;;;;;2.90;0.90;;;;;;;13.36;100.00;100341.53;7657870;23;20279;-68
2024/04/24 12:59:28;;;;;;;1.83;1.30;;;;;;;12.10;100.00;100347.91;7667051;23;20274;-67
2024/04/24 13:02:53;;;;;;;2.40;1.60;;;;;;;11.24;100.00;100349.50;7643988;23;20271;-69
2024/04/24 13:06:16;;;;;;;1.50;1.40;;;;;;;11.01;100.00;100348.25;7652387;23;20369;-68
2024/04/24 13:09:39;;;;;;;1.40;0.93;;;;;;;10.99;100.00;100339.47;7662627;23;20283;-67
2024/04/24 13:13:01;;;;;;;0.83;0.83;;;;;;;10.79;100.00;100345.97;7654351;23;20449;-69
2024/04/24 13:16:23;;;;;;;1.07;0.90;;;;;;;10.79;100.00;100339.72;7646290;23;20317;-68
2024/04/24 13:19:49;;;;;;;1.43;1.30;;;;;;;10.49;100.00;100349.00;7664783;23;20571;-65
2024/04/24 13:23:11;;;;;;;2.17;1.67;;;;;;;10.38;100.00;100338.38;7660021;23;20274;-66
2024/04/24 13:26:33;;;;;;;2.30;1.93;;;;;;;10.43;100.00;100330.69;7655008;23;20275;-67
2024/04/24 13:29:57;;;;;;;1.60;1.50;;;;;;;10.37;100.00;100333.97;7662799;23;20274;-67
2024/04/24 13:33:20;;;;;;;1.53;1.43;;;;;;;10.03;100.00;100340.88;7661430;23;20267;-69
2024/04/24 13:36:45;;;;;;;1.83;1.73;;;;;;;9.86;100.00;100341.63;7657945;23;20326;-68
2024/04/24 13:40:08;;;;;;;1.93;1.60;;;;;;;9.80;100.00;100334.13;7665547;23;20359;-68
2024/04/24 13:43:30;;;;;;;1.30;1.10;;;;;;;9.67;100.00;100350.59;7665917;23;20291;-68
2024/04/24 13:46:52;;;;;;;1.10;1.03;;;;;;;9.36;100.00;100335.59;7643177;23;20271;-66
2024/04/24 13:50:17;;;;;;;1.17;1.17;;;;;;;9.18;100.00;100338.13;7657577;23;20940;-67
2024/04/24 13:53:42;;;;;;;0.97;0.97;;;;;;;9.14;100.00;100341.22;7668171;23;20312;-66
2024/04/24 13:57:05;;;;;;;1.70;1.60;;;;;;;8.86;100.00;100346.44;7659882;23;20598;-67
2024/04/24 14:00:28;;;;;;;3.67;1.50;;;;;;;8.45;100.00;100357.34;7659858;23;20279;-66
2024/04/24 14:03:50;;;;;;;1.53;1.10;;;;;;;8.17;100.00;100349.13;7658829;23;20286;-67
2024/04/24 14:07:12;;;;;;;0.83;0.83;;;;;;;7.65;100.00;100367.03;7654385;23;20459;-67
2024/04/24 14:10:37;;;;;;;1.30;1.20;;;;;;;8.01;100.00;100352.28;7654264;23;20286;-68
2024/04/24 14:14:00;;;;;;;2.17;1.03;;;;;;;8.26;100.00;100359.94;7663242;23;20283;-65
2024/04/24 14:17:22;;;;;;;1.17;1.03;;;;;;;8.29;100.00;100362.38;7629987;23;20271;-65
2024/04/24 14:20:44;;;;;;;1.23;0.93;;;;;;;8.58;100.00;100360.66;7651089;23;20310;-69
2024/04/24 14:24:07;;;;;;;0.93;0.87;;;;;;;8.90;100.00;100368.53;7664900;23;20283;-70
2024/04/24 14:27:32;;;;;;;1.57;1.30;;;;;;;9.33;100.00;100360.94;7657088;23;20351;-69
2024/04/24 14:30:54;;;;;;;0.80;0.80;;;;;;;9.19;100.00;100365.88;7655258;23;20266;-68
2024/04/24 14:34:16;;;;;;;1.10;1.00;;;;;;;8.32;100.00;100366.63;7661891;23;20469;-69
2024/04/24 14:37:39;;;;;;;2.77;1.10;;;;;;;8.33;100.00;100373.69;7653990;23;20279;-69
2024/04/24 14:41:04;;;;;;;1.30;1.20;;;;;;;7.98;100.00;100372.22;7652201;23;20271;-68
2024/04/24 14:44:28;;;;;;;2.00;1.20;;;;;;;8.59;100.00;100366.88;7667358;23;20566;-69
2024/04/24 14:47:51;;;;;;;1.23;1.03;;;;;;;8.42;100.00;100364.81;7651196;23;20274;-69
2024/04/24 14:51:13;;;;;;;1.57;1.40;;;;;;;8.15;100.00;100367.19;7650584;23;20555;-69
2024/04/24 14:54:35;;;;;;;4.87;1.73;;;;;;;8.16;100.00;100360.84;7665503;23;20471;-68
2024/04/24 14:57:57;;;;;;;1.83;1.30;;;;;;;8.45;100.00;100361.88;7655344;23;20275;-68
2024/04/24 15:01:22;;;;;;;1.27;1.03;;;;;;;8.35;100.00;100363.66;7646949;23;20267;-68
2024/04/24 15:04:45;;;;;;;1.53;1.40;;;;;;;8.61;100.00;100363.06;7656591;23;20291;-69
2024/04/24 15:08:07;;;;;;;3.43;2.47;;;;;;;8.76;100.00;100361.69;7659671;23;20323;-68
2024/04/24 15:11:30;;;;;;;5.83;3.97;;;;;;;8.82;100.00;100352.25;7651912;23;20279;-69
2024/04/24 15:14:52;;;;;;;7.97;6.80;;;;;;;8.87;100.00;100349.97;7661959;23;20271;-68
2024/04/24 15:18:17;;;;;;;1.53;1.30;;;;;;;8.68;100.00;100349.91;7651879;23;20291;-68
2024/04/24 15:21:40;;;;;;;2.67;2.33;;;;;;;8.42;100.00;100343.34;7654937;23;20320;-68
2024/04/24 15:25:03;;;;;;;4.13;3.40;;;;;;;8.66;100.00;100339.31;7667215;23;20279;-68
2024/04/24 15:28:25;;;;;;;1.90;1.73;;;;;;;8.22;100.00;100352.28;7661966;23;20800;-70
2024/04/24 15:31:48;;;;;;;2.07;1.60;;;;;;;7.71;100.00;100336.16;7647886;23;20271;-68
2024/04/24 15:35:13;;;;;;;3.97;3.30;;;;;;;8.05;100.00;100348.38;7658469;23;20804;-69
2024/04/24 15:38:35;;;;;;;7.40;6.77;;;;;;;8.96;100.00;100346.47;7665135;23;20452;-69
2024/04/24 15:41:58;;;;;;;5.00;4.60;;;;;;;8.68;100.00;100340.03;7648803;23;20263;-69
2024/04/24 15:45:20;;;;;;;491.30;444.30;;;;;;;9.62;100.00;100342.09;7658168;23;20279;-66
2024/04/24 15:48:45;;;;;;;232.10;207.27;;;;;;;10.53;100.00;100334.22;7664925;23;20274;-70
2024/04/24 15:52:10;;;;;;;43.70;40.27;;;;;;;11.15;100.00;100330.72;7654513;23;20275;-67
2024/04/24 15:55:33;;;;;;;137.77;126.27;;;;;;;11.14;100.00;100337.94;7655610;23;20263;-69